Time;durP1;ratioP1;P1;durP2;ratioP2;P2;SDS_P1;SDS_P2;PMS_P1;PMS_P2;Temp;Humidity;BMP_temperature;BMP_pressure;BME280_temperature;BME280_humidity;BME280_pressure;Samples;Min_cycle;Max_cycle;Signal;HPM_P1;HPM_P2
2024/02/02 00:01:03;;;;;;;20.73;5.97;;;9.60;99.90;;;;;;4265899;27;20047;-60
2024/02/02 00:03:05;;;;;;;20.55;6.40;;;9.60;99.90;;;;;;4266002;27;20047;-59
2024/02/02 00:05:08;;;;;;;23.75;7.10;;;9.50;99.90;;;;;;4266612;27;20047;-59
2024/02/02 00:07:10;;;;;;;23.27;6.45;;;9.60;99.90;;;;;;4266012;27;20050;-60
2024/02/02 00:09:13;;;;;;;18.90;5.95;;;9.60;99.90;;;;;;4265593;27;20070;-59
2024/02/02 00:11:15;;;;;;;19.48;5.78;;;9.60;99.90;;;;;;4266351;27;20537;-60
2024/02/02 00:13:18;;;;;;;20.73;7.38;;;9.50;99.90;;;;;;4265784;27;20127;-60
2024/02/02 00:15:20;;;;;;;23.98;7.35;;;9.60;99.90;;;;;;4265856;27;20046;-60
2024/02/02 00:17:23;;;;;;;18.95;6.68;;;9.40;99.90;;;;;;4266091;27;20465;-59
2024/02/02 00:19:25;;;;;;;17.23;5.68;;;9.40;99.90;;;;;;4265809;27;20046;-59
2024/02/02 00:21:29;;;;;;;14.00;6.15;;;9.40;99.90;;;;;;4247107;27;20104;-60
2024/02/02 00:23:31;;;;;;;30.20;7.40;;;9.40;99.90;;;;;;4265123;27;20129;-59
2024/02/02 00:25:33;;;;;;;19.10;6.38;;;9.40;99.90;;;;;;4265764;27;20496;-59
2024/02/02 00:27:35;;;;;;;22.67;6.57;;;9.40;99.90;;;;;;4265564;27;20050;-59
2024/02/02 00:29:40;;;;;;;16.45;5.40;;;9.30;99.90;;;;;;4265524;27;20122;-59
2024/02/02 00:31:42;;;;;;;18.35;6.07;;;9.30;99.90;;;;;;4265710;27;20409;-59
2024/02/02 00:33:44;;;;;;;18.98;5.80;;;9.20;99.90;;;;;;4265343;27;20046;-63
2024/02/02 00:35:46;;;;;;;20.10;6.18;;;9.20;99.90;;;;;;4265324;27;20107;-59
2024/02/02 00:37:48;;;;;;;26.55;6.65;;;9.20;99.90;;;;;;4264964;27;20038;-58
2024/02/02 00:39:51;;;;;;;19.17;5.85;;;9.10;99.90;;;;;;4265468;27;20172;-58
2024/02/02 00:41:53;;;;;;;16.95;6.15;;;9.20;99.90;;;;;;4265580;27;20495;-59
2024/02/02 00:43:55;;;;;;;18.08;6.90;;;9.20;99.90;;;;;;4265378;27;20054;-61
2024/02/02 00:45:58;;;;;;;19.42;5.90;;;9.20;99.90;;;;;;4247096;27;20100;-61
2024/02/02 00:48:02;;;;;;;21.35;6.15;;;9.30;99.90;;;;;;4265485;27;20049;-60
2024/02/02 00:50:07;;;;;;;22.58;7.28;;;9.20;99.90;;;;;;4266068;27;20043;-65
2024/02/02 00:52:09;;;;;;;18.60;7.35;;;9.20;99.90;;;;;;4266248;27;20045;-60
2024/02/02 00:54:12;;;;;;;23.48;7.95;;;9.20;99.90;;;;;;4265667;27;20050;-60
2024/02/02 00:56:14;;;;;;;19.35;6.75;;;9.10;99.90;;;;;;4265498;27;20038;-59
2024/02/02 00:58:16;;;;;;;26.00;10.13;;;9.10;99.90;;;;;;4265046;27;20492;-59
2024/02/02 01:00:18;;;;;;;22.77;9.00;;;9.00;99.90;;;;;;4264956;27;20091;-59
2024/02/02 01:02:22;;;;;;;24.60;10.02;;;9.10;99.90;;;;;;4265275;27;20138;-60
2024/02/02 01:04:24;;;;;;;33.03;10.73;;;9.20;99.90;;;;;;4264138;27;20117;-60
2024/02/02 01:06:26;;;;;;;24.67;9.40;;;9.10;99.90;;;;;;4264646;27;20099;-59
2024/02/02 01:08:28;;;;;;;21.55;9.30;;;9.10;99.90;;;;;;4264818;27;20084;-59
2024/02/02 01:10:30;;;;;;;17.52;7.70;;;9.10;99.90;;;;;;4265127;27;20047;-59
2024/02/02 01:12:33;;;;;;;22.08;9.90;;;9.20;99.90;;;;;;4265264;27;20415;-60
2024/02/02 01:14:36;;;;;;;26.23;11.45;;;9.20;99.90;;;;;;4265323;27;20042;-59
2024/02/02 01:16:38;;;;;;;28.92;12.07;;;9.20;99.90;;;;;;4264793;27;20043;-59
2024/02/02 01:18:42;;;;;;;23.15;10.82;;;9.20;99.90;;;;;;4264967;27;20051;-59
2024/02/02 01:20:45;;;;;;;23.73;10.38;;;9.30;99.90;;;;;;4264653;27;20081;-59
2024/02/02 01:22:47;;;;;;;24.95;10.80;;;9.30;99.90;;;;;;4264827;27;20677;-59
2024/02/02 01:24:50;;;;;;;28.58;11.43;;;9.30;99.90;;;;;;4264990;27;20405;-59
2024/02/02 01:26:52;;;;;;;20.58;9.77;;;9.30;99.90;;;;;;4264894;27;20046;-58
2024/02/02 01:28:54;;;;;;;23.23;11.18;;;9.20;99.90;;;;;;4264797;27;20039;-59
2024/02/02 01:30:56;;;;;;;25.30;11.80;;;9.00;99.90;;;;;;4264760;27;20043;-59
2024/02/02 01:32:58;;;;;;;21.48;10.15;;;9.00;99.90;;;;;;4265685;27;20058;-62
2024/02/02 01:35:03;;;;;;;25.02;10.35;;;9.00;99.90;;;;;;4265436;27;20054;-62
2024/02/02 01:37:05;;;;;;;31.70;11.82;;;9.10;99.90;;;;;;4265289;27;20043;-61
2024/02/02 01:39:11;;;;;;;21.50;10.40;;;9.10;99.90;;;;;;4265592;27;20046;-59
2024/02/02 01:41:13;;;;;;;28.35;11.95;;;9.00;99.90;;;;;;4265128;27;20047;-59
2024/02/02 01:43:15;;;;;;;27.05;11.70;;;8.80;99.90;;;;;;4265576;27;20047;-58
2024/02/02 01:45:17;;;;;;;24.25;9.93;;;8.60;99.90;;;;;;4264853;27;20043;-59
2024/02/02 01:47:19;;;;;;;25.50;11.30;;;8.60;99.90;;;;;;4264567;27;20141;-58
2024/02/02 01:49:21;;;;;;;24.88;11.02;;;8.80;99.90;;;;;;4264299;27;20502;-58
2024/02/02 01:51:25;;;;;;;24.30;10.30;;;8.80;99.90;;;;;;4264320;27;20053;-58
2024/02/02 01:53:27;;;;;;;24.15;10.05;;;8.70;99.90;;;;;;4264614;27;20110;-58
2024/02/02 01:55:30;;;;;;;23.70;11.25;;;8.60;99.90;;;;;;4264529;27;20038;-59
2024/02/02 01:57:32;;;;;;;19.38;10.10;;;8.70;99.90;;;;;;4264445;27;20046;-58
2024/02/02 01:59:34;;;;;;;22.30;10.90;;;8.70;99.90;;;;;;4246237;28;20103;-59
2024/02/02 02:01:36;;;;;;;24.70;10.82;;;8.70;99.90;;;;;;4264682;27;20138;-59
2024/02/02 02:03:38;;;;;;;32.55;11.13;;;8.60;99.90;;;;;;4264094;27;20050;-59
2024/02/02 02:05:41;;;;;;;28.75;12.45;;;8.60;99.90;;;;;;4264680;27;20047;-60
2024/02/02 02:07:45;;;;;;;23.85;11.50;;;8.70;99.90;;;;;;4265087;27;20397;-60
2024/02/02 02:09:47;;;;;;;28.23;12.13;;;8.60;99.90;;;;;;4265317;27;20054;-59
2024/02/02 02:11:51;;;;;;;22.33;11.02;;;8.60;99.90;;;;;;4265672;27;20438;-60
2024/02/02 02:13:54;;;;;;;28.83;13.30;;;8.70;99.90;;;;;;4265291;27;20049;-59
2024/02/02 02:15:56;;;;;;;25.17;11.57;;;8.80;99.90;;;;;;4266321;27;20047;-59
2024/02/02 02:17:58;;;;;;;31.35;13.30;;;9.00;99.90;;;;;;4267405;27;20150;-59
2024/02/02 02:20:01;;;;;;;30.27;12.32;;;8.90;99.90;;;;;;4267485;27;20103;-58
2024/02/02 02:22:05;;;;;;;28.42;12.07;;;8.80;99.90;;;;;;4267315;27;20077;-59
2024/02/02 02:24:08;;;;;;;28.88;12.38;;;8.70;99.90;;;;;;4267913;27;20042;-59
2024/02/02 02:26:11;;;;;;;29.85;12.10;;;8.50;99.90;;;;;;4267655;27;20034;-60
2024/02/02 02:28:13;;;;;;;26.08;12.23;;;8.50;99.90;;;;;;4267506;27;20478;-60
2024/02/02 02:30:15;;;;;;;29.75;13.07;;;8.60;99.90;;;;;;4267532;27;20067;-59
2024/02/02 02:32:17;;;;;;;30.33;12.80;;;8.60;99.90;;;;;;4267323;27;20053;-60
2024/02/02 02:34:20;;;;;;;25.75;12.05;;;8.60;99.90;;;;;;4267040;27;20074;-59
2024/02/02 02:36:23;;;;;;;26.63;12.35;;;8.60;99.90;;;;;;4267360;27;20042;-59
2024/02/02 02:38:26;;;;;;;31.98;13.00;;;8.60;99.90;;;;;;4267400;27;20044;-59
2024/02/02 02:40:28;;;;;;;25.65;11.23;;;8.70;99.90;;;;;;4267535;27;20058;-59
2024/02/02 02:42:31;;;;;;;24.77;11.00;;;8.70;99.90;;;;;;4267275;27;20477;-59
2024/02/02 02:44:33;;;;;;;21.25;10.57;;;8.90;99.90;;;;;;4267128;27;20047;-59
2024/02/02 02:46:35;;;;;;;23.33;10.93;;;8.90;99.90;;;;;;4267071;27;20071;-59
2024/02/02 02:48:37;;;;;;;19.38;10.70;;;8.80;99.90;;;;;;4266747;27;20043;-59
2024/02/02 02:50:40;;;;;;;20.30;11.07;;;8.90;99.90;;;;;;4267283;27;20137;-59
2024/02/02 02:52:42;;;;;;;22.35;9.65;;;8.90;99.90;;;;;;4266956;27;20073;-59
2024/02/02 02:54:45;;;;;;;20.85;10.15;;;8.80;99.90;;;;;;4266893;27;20054;-59
2024/02/02 02:56:47;;;;;;;20.05;10.18;;;8.90;99.90;;;;;;4267046;27;20104;-59
2024/02/02 02:58:50;;;;;;;18.98;9.73;;;8.90;99.90;;;;;;4266953;27;20050;-59
2024/02/02 03:00:53;;;;;;;18.02;8.93;;;9.00;99.90;;;;;;4267127;27;20539;-59
2024/02/02 03:02:55;;;;;;;14.95;8.68;;;9.00;99.90;;;;;;4266412;27;20121;-59
2024/02/02 03:04:58;;;;;;;18.85;10.43;;;9.00;99.90;;;;;;4267091;27;20043;-59
2024/02/02 03:07:01;;;;;;;17.98;10.10;;;9.10;99.90;;;;;;4266706;27;20058;-59
2024/02/02 03:09:04;;;;;;;16.60;9.50;;;9.00;99.90;;;;;;4266619;27;20449;-60
2024/02/02 03:11:08;;;;;;;17.30;9.73;;;9.00;99.90;;;;;;4266766;27;20413;-59
2024/02/02 03:13:10;;;;;;;16.98;10.00;;;9.00;99.90;;;;;;4266685;27;20050;-59
2024/02/02 03:15:12;;;;;;;14.63;9.02;;;8.90;99.90;;;;;;4266940;27;20187;-59
2024/02/02 03:17:15;;;;;;;14.40;8.70;;;9.20;99.90;;;;;;4266166;27;20043;-59
2024/02/02 03:19:17;;;;;;;17.33;10.13;;;9.10;99.90;;;;;;4266463;27;20047;-59
2024/02/02 03:21:19;;;;;;;24.98;10.93;;;9.00;99.90;;;;;;4266676;27;20118;-59
2024/02/02 03:23:21;;;;;;;18.55;10.15;;;9.00;99.90;;;;;;4266908;27;20094;-59
2024/02/02 03:25:23;;;;;;;18.63;9.85;;;9.10;99.90;;;;;;4266803;27;20039;-59
2024/02/02 03:27:27;;;;;;;19.02;10.82;;;9.00;99.90;;;;;;4265579;27;20050;-59
2024/02/02 03:29:29;;;;;;;22.73;11.38;;;8.90;99.90;;;;;;4266505;27;20049;-59
2024/02/02 03:31:31;;;;;;;19.75;10.77;;;8.80;99.90;;;;;;4266048;27;20404;-59
2024/02/02 03:33:33;;;;;;;19.33;11.52;;;8.90;99.90;;;;;;4266277;27;20049;-59
2024/02/02 03:35:36;;;;;;;17.48;11.90;;;9.00;99.90;;;;;;4266502;27;20063;-59
2024/02/02 03:37:38;;;;;;;18.83;10.52;;;8.90;99.90;;;;;;4266410;27;20117;-58
2024/02/02 03:39:40;;;;;;;21.95;12.45;;;8.80;99.90;;;;;;4266497;27;20130;-60
2024/02/02 03:41:42;;;;;;;22.08;12.00;;;8.70;99.90;;;;;;4266323;27;20070;-59
2024/02/02 03:43:46;;;;;;;21.67;12.65;;;8.70;99.90;;;;;;4266347;27;20490;-59
2024/02/02 03:45:48;;;;;;;15.90;10.50;;;8.70;99.90;;;;;;4266245;27;20129;-59
2024/02/02 03:47:52;;;;;;;22.73;13.18;;;8.70;99.90;;;;;;4268673;27;20043;-60
2024/02/02 03:49:54;;;;;;;20.08;12.18;;;8.60;99.90;;;;;;4249064;27;20035;-59
2024/02/02 03:51:56;;;;;;;22.80;11.10;;;8.60;99.90;;;;;;4267688;27;20404;-59
2024/02/02 03:53:58;;;;;;;18.50;11.70;;;8.60;99.90;;;;;;4265965;27;20063;-59
2024/02/02 03:56:00;;;;;;;18.77;11.35;;;8.60;99.90;;;;;;4266217;27;20066;-60
2024/02/02 03:58:03;;;;;;;16.33;10.68;;;8.60;99.90;;;;;;4266373;27;20043;-59
2024/02/02 04:00:09;;;;;;;18.58;10.48;;;8.70;99.90;;;;;;4265657;27;20035;-58
2024/02/02 04:02:12;;;;;;;20.58;11.10;;;8.60;99.90;;;;;;4265784;27;20064;-59
2024/02/02 04:04:14;;;;;;;19.30;10.55;;;8.50;99.90;;;;;;4265763;27;20046;-60
2024/02/02 04:06:16;;;;;;;14.40;9.25;;;8.50;99.90;;;;;;4265948;27;20485;-59
2024/02/02 04:08:18;;;;;;;14.07;8.55;;;8.40;99.90;;;;;;4247304;27;20075;-59
2024/02/02 04:10:21;;;;;;;14.73;8.65;;;8.40;99.90;;;;;;4265987;27;20051;-59
2024/02/02 04:12:23;;;;;;;17.20;8.25;;;8.40;99.90;;;;;;4265726;27;20050;-59
2024/02/02 04:14:25;;;;;;;15.77;8.50;;;8.40;99.90;;;;;;4265658;27;20088;-59
2024/02/02 04:16:29;;;;;;;16.90;7.40;;;8.30;99.90;;;;;;4265862;27;20472;-59
2024/02/02 04:18:31;;;;;;;15.77;8.07;;;8.30;99.90;;;;;;4265800;27;20089;-59
2024/02/02 04:20:33;;;;;;;15.25;8.10;;;8.40;99.90;;;;;;4265752;27;20043;-60
2024/02/02 04:22:35;;;;;;;14.65;8.07;;;8.30;99.90;;;;;;4247275;27;20405;-59
2024/02/02 04:24:38;;;;;;;15.80;7.82;;;8.30;99.90;;;;;;4265835;27;20125;-59
2024/02/02 04:26:40;;;;;;;15.35;7.32;;;8.40;99.90;;;;;;4265926;27;20067;-59
2024/02/02 04:28:42;;;;;;;14.75;8.85;;;8.30;99.90;;;;;;4266244;27;20054;-59
2024/02/02 04:30:44;;;;;;;16.45;7.18;;;8.30;99.90;;;;;;4265716;27;20043;-60
2024/02/02 04:32:48;;;;;;;13.88;7.57;;;8.30;99.90;;;;;;4265706;27;20042;-59
2024/02/02 04:34:50;;;;;;;14.35;8.63;;;8.20;99.90;;;;;;4265611;27;20553;-59
2024/02/02 04:36:52;;;;;;;13.38;7.38;;;8.20;99.90;;;;;;4265541;27;20461;-59
2024/02/02 04:38:54;;;;;;;13.98;7.93;;;8.30;99.90;;;;;;4265025;27;20123;-60
2024/02/02 04:40:57;;;;;;;17.15;9.05;;;8.30;99.90;;;;;;4265360;27;20057;-59
2024/02/02 04:42:59;;;;;;;15.60;7.78;;;8.20;99.90;;;;;;4264898;27;20046;-59
2024/02/02 04:45:01;;;;;;;16.63;7.43;;;8.30;99.90;;;;;;4265163;27;20051;-59
2024/02/02 04:47:03;;;;;;;15.85;7.70;;;8.10;99.90;;;;;;4265293;27;20146;-63
2024/02/02 04:49:07;;;;;;;15.90;7.03;;;8.20;99.90;;;;;;4246742;27;20047;-59
2024/02/02 04:51:09;;;;;;;14.90;7.78;;;8.20;99.90;;;;;;4265477;27;20046;-59
2024/02/02 04:53:13;;;;;;;13.55;6.85;;;8.20;99.90;;;;;;4266335;27;20054;-61
2024/02/02 04:55:15;;;;;;;12.38;7.47;;;8.20;99.90;;;;;;4268074;27;20065;-59
2024/02/02 04:57:17;;;;;;;13.65;7.22;;;8.20;99.90;;;;;;4266880;27;20046;-65
2024/02/02 04:59:19;;;;;;;13.65;6.55;;;8.10;99.90;;;;;;4265326;27;20477;-59
2024/02/02 05:01:21;;;;;;;14.20;7.07;;;8.20;99.90;;;;;;4265146;27;20111;-59
2024/02/02 05:03:23;;;;;;;14.07;7.30;;;8.30;99.90;;;;;;4265049;27;20046;-59
2024/02/02 05:05:27;;;;;;;15.50;7.50;;;8.40;99.90;;;;;;4265185;27;20046;-59
2024/02/02 05:07:29;;;;;;;12.65;6.75;;;8.40;99.90;;;;;;4265306;27;20070;-59
2024/02/02 05:09:31;;;;;;;13.27;6.43;;;8.30;99.90;;;;;;4265049;27;20460;-59
2024/02/02 05:11:33;;;;;;;13.82;7.43;;;8.30;99.90;;;;;;4264747;27;20095;-59
2024/02/02 05:13:35;;;;;;;17.17;7.38;;;8.20;99.90;;;;;;4264739;27;20122;-59
2024/02/02 05:15:37;;;;;;;12.93;6.38;;;8.10;99.90;;;;;;4264958;27;20146;-59
2024/02/02 05:17:39;;;;;;;16.67;7.80;;;8.10;99.90;;;;;;4246429;27;20059;-59
2024/02/02 05:19:42;;;;;;;10.65;6.90;;;8.10;99.90;;;;;;4264986;27;20443;-59
2024/02/02 05:21:46;;;;;;;14.68;7.32;;;8.20;99.90;;;;;;4264806;27;20489;-59
2024/02/02 05:23:48;;;;;;;18.67;7.20;;;8.20;99.90;;;;;;4265032;27;20038;-59
2024/02/02 05:25:51;;;;;;;13.65;7.20;;;8.20;99.90;;;;;;4265109;27;20432;-59
2024/02/02 05:27:53;;;;;;;12.27;7.18;;;8.20;99.90;;;;;;4264649;27;20047;-59
2024/02/02 05:29:56;;;;;;;12.43;7.10;;;8.20;99.90;;;;;;4264585;27;20088;-60
2024/02/02 05:31:58;;;;;;;14.77;6.80;;;8.30;99.90;;;;;;4265067;27;20053;-59
2024/02/02 05:34:00;;;;;;;12.20;6.70;;;8.30;99.90;;;;;;4265066;27;20491;-59
2024/02/02 05:36:03;;;;;;;11.85;7.18;;;8.30;99.90;;;;;;4264571;27;20042;-59
2024/02/02 05:38:07;;;;;;;11.63;6.72;;;8.30;99.90;;;;;;4264966;27;20061;-59
2024/02/02 05:40:09;;;;;;;10.35;6.30;;;8.20;99.90;;;;;;4264696;27;20723;-59
2024/02/02 05:42:13;;;;;;;12.48;6.32;;;8.10;99.90;;;;;;4264589;27;20450;-59
2024/02/02 05:44:15;;;;;;;12.18;6.80;;;8.00;99.90;;;;;;4264690;27;20049;-59
2024/02/02 05:46:17;;;;;;;13.40;6.80;;;8.00;99.90;;;;;;4264673;27;20042;-59
2024/02/02 05:48:19;;;;;;;14.15;6.28;;;8.00;99.90;;;;;;4264574;27;20043;-59
2024/02/02 05:50:22;;;;;;;15.65;6.60;;;8.10;99.90;;;;;;4265554;27;20107;-59
2024/02/02 05:52:24;;;;;;;11.70;6.03;;;8.10;99.90;;;;;;4249544;27;20058;-59
2024/02/02 05:54:27;;;;;;;16.98;7.78;;;8.10;99.90;;;;;;4267655;27;20050;-59
2024/02/02 05:56:30;;;;;;;13.40;6.20;;;8.10;99.90;;;;;;4267957;27;20423;-59
2024/02/02 05:58:32;;;;;;;14.52;5.90;;;8.10;99.90;;;;;;4267855;27;20039;-59
2024/02/02 06:00:34;;;;;;;10.60;6.68;;;8.10;99.90;;;;;;4267849;27;20078;-59
2024/02/02 06:02:36;;;;;;;11.45;5.50;;;8.10;99.90;;;;;;4268065;27;20069;-59
2024/02/02 06:04:39;;;;;;;12.60;6.80;;;8.30;99.90;;;;;;4267867;27;20132;-59
2024/02/02 06:06:41;;;;;;;12.05;6.25;;;8.20;99.90;;;;;;4267898;27;20477;-62
2024/02/02 06:08:43;;;;;;;12.82;6.10;;;8.20;99.90;;;;;;4267890;27;20039;-59
2024/02/02 06:10:46;;;;;;;17.88;7.00;;;8.20;99.90;;;;;;4267098;27;20054;-59
2024/02/02 06:12:49;;;;;;;14.25;6.30;;;8.00;99.90;;;;;;4249479;27;20119;-59
2024/02/02 06:14:51;;;;;;;12.55;6.45;;;8.10;99.90;;;;;;4268022;27;20047;-59
2024/02/02 06:16:53;;;;;;;12.07;6.22;;;8.00;99.90;;;;;;4267556;27;20079;-60
2024/02/02 06:18:55;;;;;;;11.02;5.65;;;8.10;99.90;;;;;;4268587;27;20070;-59
2024/02/02 06:20:57;;;;;;;10.43;5.70;;;8.00;99.90;;;;;;4268938;27;20043;-62
2024/02/02 06:23:00;;;;;;;15.63;6.60;;;8.10;99.90;;;;;;4268683;27;20452;-60
2024/02/02 06:25:04;;;;;;;12.48;5.47;;;8.10;99.90;;;;;;4269085;27;20054;-64
2024/02/02 06:27:07;;;;;;;12.10;6.25;;;8.10;99.90;;;;;;4270212;27;20130;-59
2024/02/02 06:29:09;;;;;;;11.15;7.15;;;8.00;99.90;;;;;;4270301;27;20093;-62
2024/02/02 06:31:13;;;;;;;16.52;8.55;;;8.00;99.90;;;;;;4267620;27;20065;-60
2024/02/02 06:33:16;;;;;;;12.95;6.97;;;7.80;99.90;;;;;;4267557;27;20073;-59
2024/02/02 06:35:19;;;;;;;16.38;8.13;;;7.90;99.90;;;;;;4267829;27;20042;-59
2024/02/02 06:37:21;;;;;;;13.30;7.25;;;7.70;99.90;;;;;;4267639;27;20393;-60
2024/02/02 06:39:23;;;;;;;16.08;8.05;;;7.70;99.90;;;;;;4267556;27;20054;-60
2024/02/02 06:41:26;;;;;;;13.18;8.95;;;7.70;99.90;;;;;;4267926;27;20051;-59
2024/02/02 06:43:29;;;;;;;16.42;9.57;;;7.80;99.90;;;;;;4268007;27;20099;-60
2024/02/02 06:45:32;;;;;;;14.88;8.55;;;7.70;99.90;;;;;;4268066;27;20054;-61
2024/02/02 06:47:35;;;;;;;14.38;9.02;;;7.60;99.90;;;;;;4269864;27;20046;-60
2024/02/02 06:49:37;;;;;;;16.13;8.23;;;7.60;99.90;;;;;;4270243;27;20042;-65
2024/02/02 06:51:39;;;;;;;18.27;9.93;;;7.70;99.90;;;;;;4268167;27;20078;-60
2024/02/02 06:53:41;;;;;;;16.58;9.38;;;7.70;99.90;;;;;;4266859;27;20088;-60
2024/02/02 06:55:44;;;;;;;15.50;8.98;;;7.80;99.90;;;;;;4266935;27;20119;-59
2024/02/02 06:57:46;;;;;;;15.32;8.40;;;7.70;99.90;;;;;;4266964;27;20043;-59
2024/02/02 06:59:52;;;;;;;17.73;10.40;;;7.80;99.90;;;;;;4267031;27;20099;-59
2024/02/02 07:01:55;;;;;;;19.17;10.35;;;7.80;99.90;;;;;;4267203;27;20122;-59
2024/02/02 07:03:58;;;;;;;16.25;8.55;;;7.60;99.90;;;;;;4267117;27;20478;-59
2024/02/02 07:06:02;;;;;;;16.25;9.15;;;7.70;99.90;;;;;;4266863;27;20141;-59
2024/02/02 07:08:05;;;;;;;18.88;8.55;;;7.70;99.90;;;;;;4248363;27;20057;-59
2024/02/02 07:10:13;;;;;;;13.27;8.32;;;7.70;99.90;;;;;;4266935;27;20042;-59
2024/02/02 07:13:00;;;;;;;11.18;7.75;;;7.80;99.90;;;;;;4266832;27;20068;-57
2024/02/02 07:15:04;;;;;;;11.35;7.38;;;7.80;99.90;;;;;;4266647;27;20099;-57
2024/02/02 07:17:21;;;;;;;14.52;9.60;;;7.90;99.90;;;;;;4266949;27;20487;-59
2024/02/02 07:19:37;;;;;;;12.80;8.75;;;7.80;99.90;;;;;;4266906;27;20134;-59
2024/02/02 07:21:40;;;;;;;17.77;8.15;;;7.70;99.90;;;;;;4266646;27;20516;-59
2024/02/02 07:23:44;;;;;;;12.38;8.35;;;7.70;99.90;;;;;;4266172;27;20047;-59
2024/02/02 07:25:53;;;;;;;12.48;8.40;;;7.70;99.90;;;;;;4266879;27;20122;-58
2024/02/02 07:28:03;;;;;;;10.82;8.07;;;7.70;99.90;;;;;;4266450;27;20047;-58
2024/02/02 07:30:12;;;;;;;15.57;9.02;;;7.80;99.90;;;;;;4266659;27;20111;-58
2024/02/02 07:32:17;;;;;;;12.13;7.82;;;7.80;99.90;;;;;;4266708;27;20489;-59
2024/02/02 07:34:39;;;;;;;15.65;10.07;;;7.80;99.90;;;;;;4266712;27;20379;-58
2024/02/02 07:36:41;;;;;;;18.83;11.10;;;7.90;99.90;;;;;;4266749;27;20405;-59
2024/02/02 07:38:46;;;;;;;18.83;10.05;;;7.80;99.90;;;;;;4268187;27;20121;-62
2024/02/02 07:41:03;;;;;;;13.55;9.27;;;7.90;99.90;;;;;;4268559;27;20416;-62
2024/02/02 07:43:05;;;;;;;15.02;8.77;;;7.80;99.90;;;;;;4266652;27;20088;-59
2024/02/02 07:45:08;;;;;;;10.00;7.88;;;7.80;99.90;;;;;;4266896;27;20481;-59
2024/02/02 07:47:11;;;;;;;11.75;9.10;;;7.80;99.90;;;;;;4266309;27;20103;-58
2024/02/02 07:49:13;;;;;;;12.45;8.98;;;7.70;99.90;;;;;;4266082;27;20049;-58
2024/02/02 07:51:18;;;;;;;14.45;8.68;;;7.70;99.90;;;;;;4247797;27;20112;-58
2024/02/02 07:53:21;;;;;;;11.40;8.70;;;7.80;99.90;;;;;;4265663;27;20517;-58
2024/02/02 07:55:23;;;;;;;13.43;8.10;;;7.70;99.90;;;;;;4266089;27;20047;-58
2024/02/02 07:57:25;;;;;;;14.45;8.90;;;7.60;99.90;;;;;;4266409;27;20500;-59
2024/02/02 07:59:27;;;;;;;11.45;8.80;;;7.60;99.90;;;;;;4266241;27;20046;-58
2024/02/02 08:01:33;;;;;;;13.80;9.48;;;7.70;99.90;;;;;;4266048;27;20055;-58
2024/02/02 08:03:37;;;;;;;14.00;8.77;;;7.70;99.90;;;;;;4266018;27;20051;-57
2024/02/02 08:05:39;;;;;;;13.02;10.00;;;7.80;99.90;;;;;;4266013;27;20066;-58
2024/02/02 08:07:42;;;;;;;20.73;10.80;;;7.90;99.90;;;;;;4265704;27;20199;-58
2024/02/02 08:09:44;;;;;;;12.90;7.47;;;7.60;99.90;;;;;;4265836;27;20081;-58
2024/02/02 08:11:46;;;;;;;11.13;8.13;;;7.70;99.90;;;;;;4265684;27;20042;-58
2024/02/02 08:13:49;;;;;;;12.55;9.30;;;7.80;99.90;;;;;;4265259;27;20486;-58
2024/02/02 08:15:52;;;;;;;14.30;9.77;;;7.90;99.90;;;;;;4265763;27;20095;-59
2024/02/02 08:17:54;;;;;;;12.23;8.48;;;7.90;99.90;;;;;;4265478;27;20115;-58
2024/02/02 08:19:58;;;;;;;11.85;9.27;;;7.90;99.90;;;;;;4265889;27;20397;-58
2024/02/02 08:22:02;;;;;;;10.85;9.00;;;7.90;99.90;;;;;;4265564;27;20103;-59
2024/02/02 08:24:05;;;;;;;15.55;9.52;;;7.80;99.90;;;;;;4265577;27;20607;-59
2024/02/02 08:26:07;;;;;;;11.45;8.20;;;7.80;99.90;;;;;;4265993;27;20043;-59
2024/02/02 08:28:09;;;;;;;10.57;7.30;;;7.90;99.90;;;;;;4266741;27;20043;-61
2024/02/02 08:30:12;;;;;;;15.07;7.40;;;7.90;99.90;;;;;;4267129;27;20046;-59
2024/02/02 08:32:15;;;;;;;11.60;7.15;;;8.00;99.90;;;;;;4267923;27;20051;-61
2024/02/02 08:34:17;;;;;;;12.48;7.60;;;7.90;99.90;;;;;;4268321;27;20049;-64
2024/02/02 08:36:21;;;;;;;11.15;8.38;;;8.00;99.90;;;;;;4268330;27;20125;-58
2024/02/02 08:38:23;;;;;;;12.70;8.77;;;8.00;99.90;;;;;;4267035;27;20042;-59
2024/02/02 08:40:34;;;;;;;9.52;7.82;;;8.00;99.90;;;;;;4266238;27;20047;-59
2024/02/02 08:42:36;;;;;;;17.10;8.85;;;8.10;99.90;;;;;;4265882;27;20055;-60
2024/02/02 08:44:38;;;;;;;12.13;7.55;;;8.00;99.90;;;;;;4265440;27;20097;-59
2024/02/02 08:46:40;;;;;;;10.15;7.40;;;8.00;99.90;;;;;;4265619;27;20039;-58
2024/02/02 08:48:49;;;;;;;10.57;8.38;;;8.10;99.90;;;;;;4265221;27;20034;-59
2024/02/02 08:50:57;;;;;;;13.00;9.52;;;8.00;99.90;;;;;;4265911;27;20126;-60
2024/02/02 08:53:01;;;;;;;10.32;7.88;;;7.90;99.90;;;;;;4265884;27;20139;-63
2024/02/02 08:55:20;;;;;;;15.40;7.88;;;8.00;99.90;;;;;;4265596;27;20461;-60
2024/02/02 08:58:00;;;;;;;10.45;8.40;;;8.00;99.90;;;;;;4265353;27;20063;-58
2024/02/02 09:00:15;;;;;;;10.43;7.32;;;8.10;99.90;;;;;;4265246;27;20468;-59
2024/02/02 09:02:40;;;;;;;11.95;8.20;;;8.20;99.90;;;;;;4265026;27;20099;-59
2024/02/02 09:04:59;;;;;;;11.80;8.40;;;8.30;99.90;;;;;;4246625;27;20083;-59
2024/02/02 09:07:03;;;;;;;12.23;8.68;;;8.10;99.90;;;;;;4265138;27;20050;-59
2024/02/02 09:09:11;;;;;;;11.48;8.60;;;8.20;99.90;;;;;;4265403;27;20051;-59
2024/02/02 09:11:21;;;;;;;10.95;8.32;;;8.30;99.90;;;;;;4264839;27;20462;-59
2024/02/02 09:13:24;;;;;;;13.27;7.72;;;8.40;99.90;;;;;;4265094;27;20038;-60
2024/02/02 09:15:30;;;;;;;10.23;8.00;;;8.30;99.90;;;;;;4246697;27;20522;-59
2024/02/02 09:17:34;;;;;;;12.43;7.68;;;8.30;99.90;;;;;;4265134;27;20402;-59
2024/02/02 09:19:41;;;;;;;16.55;8.30;;;8.40;99.90;;;;;;4264752;27;20386;-59
2024/02/02 09:21:43;;;;;;;14.48;8.13;;;8.40;99.90;;;;;;4264883;27;20161;-59
2024/02/02 09:23:49;;;;;;;10.85;7.35;;;8.30;99.90;;;;;;4246623;28;20070;-58
2024/02/02 09:25:53;;;;;;;12.32;7.90;;;8.40;99.90;;;;;;4267204;27;20047;-59
2024/02/02 09:27:56;;;;;;;10.32;7.40;;;8.30;99.90;;;;;;4268230;27;20043;-58
2024/02/02 09:29:59;;;;;;;9.93;6.95;;;8.50;99.90;;;;;;4268518;27;20047;-61
2024/02/02 09:32:03;;;;;;;10.63;7.15;;;8.50;99.90;;;;;;4268381;27;20039;-60
2024/02/02 09:34:06;;;;;;;13.93;8.20;;;8.50;99.90;;;;;;4267969;27;20043;-59
2024/02/02 09:36:11;;;;;;;11.88;7.30;;;8.50;99.90;;;;;;4268279;27;20042;-59
2024/02/02 09:38:14;;;;;;;13.15;8.27;;;8.50;99.90;;;;;;4268397;27;20507;-59
2024/02/02 09:41:15;;;;;;;15.57;7.05;;;8.60;99.90;;;;;;4268208;27;20374;-61
2024/02/02 09:43:23;;;;;;;13.45;8.40;;;8.80;99.90;;;;;;4268439;27;20491;-59
2024/02/02 09:45:46;;;;;;;14.70;7.95;;;8.70;99.90;;;;;;4268503;27;20099;-60
2024/02/02 09:47:59;;;;;;;11.88;8.15;;;8.70;99.90;;;;;;4269229;27;20541;-59
2024/02/02 09:50:12;;;;;;;12.43;7.88;;;8.80;99.90;;;;;;4252956;27;20047;-59
2024/02/02 09:52:23;;;;;;;12.65;7.53;;;8.80;99.90;;;;;;4266475;27;20477;-60
2024/02/02 09:54:36;;;;;;;13.55;8.15;;;8.90;99.90;;;;;;4249434;27;20493;-58
2024/02/02 09:56:50;;;;;;;14.55;8.00;;;9.00;99.90;;;;;;4267933;27;20050;-60
2024/02/02 09:58:59;;;;;;;12.55;8.18;;;9.00;99.90;;;;;;4268029;27;20492;-59
2024/02/02 10:01:14;;;;;;;16.92;8.60;;;9.20;99.90;;;;;;4268125;27;20470;-59
2024/02/02 10:03:26;;;;;;;16.58;7.90;;;9.30;99.90;;;;;;4267508;27;20154;-59
2024/02/02 10:05:49;;;;;;;14.57;8.25;;;9.40;99.90;;;;;;4267893;27;20499;-60
2024/02/02 10:08:06;;;;;;;9.85;7.00;;;9.40;99.90;;;;;;4267743;27;20104;-60
2024/02/02 10:10:24;;;;;;;15.77;7.93;;;9.50;99.90;;;;;;4267741;27;20045;-59
2024/02/02 10:12:40;;;;;;;11.52;7.65;;;9.50;99.90;;;;;;4267817;27;20047;-59
2024/02/02 10:14:55;;;;;;;;;;;9.40;99.90;;;;;;4268480;27;20121;-59
2024/02/02 10:17:16;;;;;;;10.93;7.95;;;9.50;99.90;;;;;;4267171;27;20321;-59
2024/02/02 10:19:48;;;;;;;13.07;7.88;;;9.40;99.90;;;;;;4267593;27;20054;-59
2024/02/02 10:22:00;;;;;;;10.77;8.38;;;9.50;99.90;;;;;;4266176;27;20049;-59
2024/02/02 10:24:27;;;;;;;11.90;7.55;;;9.40;99.90;;;;;;4268548;27;20043;-60
2024/02/02 10:26:50;;;;;;;13.68;7.70;;;9.40;99.90;;;;;;4267903;27;20141;-60
2024/02/02 10:28:59;;;;;;;13.07;7.35;;;9.70;99.90;;;;;;4267527;27;20045;-60
2024/02/02 10:31:20;;;;;;;10.55;7.25;;;9.60;99.90;;;;;;4248729;27;20043;-59
2024/02/02 10:33:34;;;;;;;8.77;6.43;;;9.70;99.90;;;;;;4267800;27;20046;-58
2024/02/02 10:35:48;;;;;;;7.90;7.10;;;9.70;99.90;;;;;;4266603;27;20150;-60
2024/02/02 10:37:50;;;;;;;9.57;6.80;;;9.80;99.90;;;;;;4232291;28;20044;-60
2024/02/02 10:40:10;;;;;;;12.02;6.18;;;9.90;99.90;;;;;;4250400;27;20043;-59
2024/02/02 10:42:23;;;;;;;11.05;7.20;;;9.80;99.90;;;;;;4250156;27;20058;-59
2024/02/02 10:44:45;;;;;;;11.70;7.45;;;10.00;99.90;;;;;;4250278;27;20209;-59
2024/02/02 10:47:10;;;;;;;12.40;6.60;;;10.10;99.80;;;;;;4249635;27;20410;-59
2024/02/02 10:49:35;;;;;;;10.52;5.95;;;10.00;99.70;;;;;;4261135;27;20046;-60